Time;durP1;ratioP1;P1;durP2;ratioP2;P2;SDS_P1;SDS_P2;PMS_P1;PMS_P2;Temp;Humidity;BMP_temperature;BMP_pressure;BME280_temperature;BME280_humidity;BME280_pressure;Samples;Min_cycle;Max_cycle;Signal;HPM_P1;HPM_P2
2022/01/21 00:01:13;;;;;;;18.63;4.93;;;2.70;99.90;;;;;;5114537;28;20277;-57
2022/01/21 00:03:40;;;;;;;15.27;4.80;;;2.70;99.90;;;;;;5114192;27;20177;-57
2022/01/21 00:06:06;;;;;;;12.00;4.30;;;2.70;99.90;;;;;;5114452;28;20622;-57
2022/01/21 00:08:37;;;;;;;10.33;3.73;;;2.70;99.90;;;;;;5114427;28;20264;-57
2022/01/21 00:11:03;;;;;;;9.10;3.90;;;2.60;99.90;;;;;;5114228;28;20241;-57
2022/01/21 00:13:37;;;;;;;13.03;4.50;;;2.60;99.90;;;;;;5114336;28;20622;-57
2022/01/21 00:16:08;;;;;;;11.97;3.90;;;2.50;99.90;;;;;;5114233;28;20231;-57
2022/01/21 00:18:37;;;;;;;14.47;3.80;;;2.50;99.90;;;;;;5114324;28;20168;-58
2022/01/21 00:32:03;;;;;;;14.93;3.70;;;2.40;99.90;;;;;;5114093;28;20264;-57
2022/01/21 00:34:29;;;;;;;10.20;3.50;;;2.40;99.90;;;;;;5113648;28;20258;-57
2022/01/21 00:36:55;;;;;;;12.17;3.40;;;2.50;99.90;;;;;;5114017;28;20213;-57
2022/01/21 00:39:24;;;;;;;9.67;3.77;;;2.40;99.90;;;;;;5113997;28;20181;-58
2022/01/21 00:42:04;;;;;;;7.70;3.37;;;2.50;99.90;;;;;;5113643;28;20518;-57
2022/01/21 00:44:30;;;;;;;13.30;3.43;;;2.50;99.90;;;;;;5112738;28;20264;-57
2022/01/21 00:46:56;;;;;;;8.73;3.53;;;2.50;99.90;;;;;;5113874;28;20255;-57
2022/01/21 00:49:22;;;;;;;11.90;3.87;;;2.60;99.90;;;;;;5113886;28;20195;-57
2022/01/21 00:51:48;;;;;;;12.40;3.37;;;2.60;99.90;;;;;;5113880;28;20176;-58
2022/01/21 00:54:14;;;;;;;11.03;3.30;;;2.60;99.90;;;;;;5114059;28;20602;-56
2022/01/21 00:56:40;;;;;;;8.93;3.17;;;2.50;99.90;;;;;;5113989;28;20185;-58
2022/01/21 00:59:06;;;;;;;11.57;3.40;;;2.40;99.90;;;;;;5118342;28;20523;-58
2022/01/21 01:01:32;;;;;;;11.23;2.97;;;2.40;99.90;;;;;;5119218;28;20173;-57
2022/01/21 01:03:58;;;;;;;10.90;3.00;;;2.50;99.90;;;;;;5123199;28;20177;-58
2022/01/21 01:06:23;;;;;;;11.97;3.10;;;2.40;99.90;;;;;;5120450;28;20225;-57
2022/01/21 01:08:51;;;;;;;10.57;3.50;;;2.30;99.90;;;;;;5117566;28;20542;-57
2022/01/21 01:11:24;;;;;;;9.77;3.20;;;2.30;99.90;;;;;;5117916;28;20406;-57
2022/01/21 01:22:04;;;;;;;11.27;3.07;;;2.30;99.90;;;;;;5117729;28;20596;-57
2022/01/21 01:29:56;;;;;;;9.63;3.10;;;2.60;99.90;;;;;;5117587;28;20184;-57
2022/01/21 01:32:24;;;;;;;8.43;2.70;;;2.60;99.90;;;;;;5117414;28;20181;-58
2022/01/21 01:34:51;;;;;;;10.20;3.40;;;2.80;99.90;;;;;;5117351;28;20190;-57
2022/01/21 01:37:42;;;;;;;11.30;3.23;;;2.80;99.90;;;;;;5117359;28;20541;-57
2022/01/21 01:40:24;;;;;;;9.70;2.93;;;2.90;99.90;;;;;;5117319;28;20212;-57
2022/01/21 01:50:58;;;;;;;11.10;2.43;;;3.00;99.90;;;;;;5117192;28;20172;-57
2022/01/21 01:53:42;;;;;;;15.95;2.83;;;3.10;99.90;;;;;;5117038;28;20213;-57
2022/01/21 01:56:12;;;;;;;9.93;2.30;;;3.10;99.90;;;;;;5116996;28;20290;-57
2022/01/21 01:58:40;;;;;;;8.33;2.70;;;3.10;99.90;;;;;;5116940;28;20558;-57
2022/01/21 02:01:08;;;;;;;8.23;2.90;;;3.10;99.90;;;;;;5116863;28;20495;-57
2022/01/21 02:03:34;;;;;;;9.10;2.60;;;3.10;99.90;;;;;;5116876;28;20219;-57
2022/01/21 02:06:00;;;;;;;10.53;2.80;;;3.00;99.90;;;;;;5116812;28;20630;-57
2022/01/21 02:08:27;;;;;;;8.57;2.43;;;2.90;99.90;;;;;;5115471;28;20185;-57
2022/01/21 02:10:52;;;;;;;7.83;2.60;;;2.80;99.90;;;;;;5116514;28;20184;-57
2022/01/21 02:13:25;;;;;;;6.03;2.07;;;2.80;99.90;;;;;;5116600;28;20538;-58
2022/01/21 02:16:12;;;;;;;9.63;2.50;;;2.90;99.90;;;;;;5116625;28;20197;-57
2022/01/21 02:23:53;;;;;;;8.40;2.30;;;3.10;99.90;;;;;;5116445;28;20176;-57
2022/01/21 02:26:19;;;;;;;6.90;1.73;;;3.20;99.90;;;;;;5116337;28;20237;-57
2022/01/21 02:28:45;;;;;;;10.87;2.40;;;3.20;99.90;;;;;;5116094;28;20169;-57
2022/01/21 02:31:11;;;;;;;10.47;2.40;;;3.20;99.90;;;;;;5116395;28;20188;-57
2022/01/21 02:33:36;;;;;;;7.23;2.23;;;3.20;99.90;;;;;;5115976;28;20177;-58
2022/01/21 02:36:02;;;;;;;14.07;2.45;;;3.30;99.90;;;;;;5116140;28;20211;-57
2022/01/21 02:38:28;;;;;;;8.87;2.20;;;3.20;99.90;;;;;;5116490;28;20525;-57
2022/01/21 02:40:53;;;;;;;6.70;1.93;;;3.20;99.90;;;;;;5116175;28;20547;-57
2022/01/21 02:43:21;;;;;;;6.93;2.00;;;3.30;99.90;;;;;;5116128;28;20177;-58
2022/01/21 02:45:47;;;;;;;10.37;2.47;;;3.30;99.90;;;;;;5116009;28;20313;-58
2022/01/21 02:48:13;;;;;;;7.03;2.13;;;3.30;99.90;;;;;;5116629;28;20280;-57
2022/01/21 02:50:39;;;;;;;8.50;2.17;;;3.30;99.90;;;;;;5119852;28;20651;-57
2022/01/21 02:54:04;;;;;;;7.50;2.17;;;3.20;99.90;;;;;;5119069;28;20173;-57
2022/01/21 02:55:54;;;;;;;9.03;2.17;;;3.20;99.90;;;;;;5108795;28;20551;-57
2022/01/21 02:58:20;;;;;;;8.30;2.10;;;3.10;99.90;;;;;;5115817;28;20278;-57
2022/01/21 03:00:45;;;;;;;8.60;2.53;;;3.20;99.90;;;;;;5115744;28;20180;-57
2022/01/21 03:03:11;;;;;;;8.53;2.37;;;3.20;99.90;;;;;;5115704;28;20690;-57
2022/01/21 03:05:39;;;;;;;5.57;2.03;;;3.10;99.90;;;;;;5115637;28;20183;-57
2022/01/21 03:08:06;;;;;;;6.60;2.00;;;3.10;99.90;;;;;;5114415;28;20208;-57
2022/01/21 03:10:32;;;;;;;11.40;2.50;;;3.10;99.90;;;;;;5115544;28;20227;-57
2022/01/21 03:12:57;;;;;;;7.67;2.37;;;3.10;99.90;;;;;;5114285;28;20212;-57
2022/01/21 03:15:23;;;;;;;11.17;2.30;;;3.10;99.90;;;;;;5115455;28;20654;-57
2022/01/21 03:17:49;;;;;;;7.13;1.87;;;3.00;99.90;;;;;;5115038;28;20208;-57
2022/01/21 03:20:15;;;;;;;7.63;1.87;;;3.00;99.90;;;;;;5114891;28;20534;-57
2022/01/21 03:22:40;;;;;;;11.13;2.27;;;2.90;99.90;;;;;;5115361;28;20553;-57
2022/01/21 03:25:07;;;;;;;7.23;1.90;;;2.90;99.90;;;;;;5115285;28;20185;-57
2022/01/21 03:27:33;;;;;;;7.67;1.80;;;2.80;99.90;;;;;;5115183;28;20184;-58
2022/01/21 03:29:59;;;;;;;6.93;2.07;;;2.80;99.90;;;;;;5115197;28;20200;-57
2022/01/21 03:32:26;;;;;;;6.87;2.00;;;2.80;99.90;;;;;;5115157;28;20526;-57
2022/01/21 03:34:52;;;;;;;5.63;2.10;;;2.80;99.90;;;;;;5114729;28;20208;-57
2022/01/21 03:37:17;;;;;;;7.87;2.20;;;2.80;99.90;;;;;;5114778;28;20542;-57
2022/01/21 03:39:43;;;;;;;7.83;2.40;;;2.90;99.90;;;;;;5115017;28;20185;-57
2022/01/21 03:42:08;;;;;;;10.10;2.73;;;3.00;99.90;;;;;;5114899;28;20181;-57
2022/01/21 03:44:34;;;;;;;13.70;2.63;;;3.00;99.90;;;;;;5115136;28;20709;-57
2022/01/21 03:47:00;;;;;;;8.13;2.30;;;3.00;99.90;;;;;;5114497;28;20626;-57
2022/01/21 03:49:28;;;;;;;8.43;2.53;;;3.00;99.90;;;;;;5114849;28;20618;-57
2022/01/21 03:51:53;;;;;;;13.13;2.90;;;3.00;99.90;;;;;;5114822;28;20211;-57
2022/01/21 03:54:19;;;;;;;13.67;3.10;;;3.00;99.90;;;;;;5114679;28;20611;-57
2022/01/21 03:56:45;;;;;;;7.73;2.53;;;2.90;99.90;;;;;;5114382;28;20237;-57
2022/01/21 03:59:10;;;;;;;5.97;2.37;;;3.00;99.90;;;;;;5114732;28;20618;-57
2022/01/21 04:01:36;;;;;;;12.20;2.70;;;3.00;99.90;;;;;;5114584;28;20172;-57
2022/01/21 04:04:02;;;;;;;8.60;2.23;;;2.90;99.90;;;;;;5113221;28;20271;-57
2022/01/21 04:06:28;;;;;;;7.43;2.17;;;2.80;99.90;;;;;;5114517;28;20169;-57
2022/01/21 04:08:53;;;;;;;6.20;2.27;;;2.70;99.90;;;;;;5114656;28;20622;-57
2022/01/21 04:11:19;;;;;;;8.67;2.17;;;2.70;99.90;;;;;;5114421;28;20176;-57
2022/01/21 04:13:46;;;;;;;7.37;2.40;;;2.70;99.90;;;;;;5114374;28;20249;-57
2022/01/21 04:16:11;;;;;;;7.87;2.47;;;2.70;99.90;;;;;;5113938;28;20225;-57
2022/01/21 04:18:37;;;;;;;10.70;2.83;;;2.70;99.90;;;;;;5114352;28;20579;-57
2022/01/21 04:21:03;;;;;;;8.83;2.50;;;2.70;99.90;;;;;;5114265;28;20177;-57
2022/01/21 04:23:29;;;;;;;6.77;2.40;;;2.70;99.90;;;;;;5114197;28;20177;-57
2022/01/21 04:25:55;;;;;;;7.47;2.30;;;2.70;99.90;;;;;;5114121;28;20185;-57
2022/01/21 04:28:20;;;;;;;9.00;2.20;;;2.70;99.90;;;;;;5114163;28;20180;-57
2022/01/21 04:30:47;;;;;;;5.87;2.23;;;2.70;99.90;;;;;;5114139;28;20174;-58
2022/01/21 04:33:13;;;;;;;8.40;2.73;;;2.60;99.90;;;;;;5113282;28;20674;-58
2022/01/21 04:35:39;;;;;;;7.63;2.72;;;2.60;99.90;;;;;;5114591;28;20204;-57
2022/01/21 04:38:08;;;;;;;9.77;2.60;;;2.70;99.90;;;;;;5118751;28;20177;-58
2022/01/21 04:40:40;;;;;;;14.03;2.70;;;2.80;99.90;;;;;;5116747;28;20179;-57
2022/01/21 04:48:36;;;;;;;8.30;3.10;;;2.60;99.90;;;;;;5113992;28;20635;-57
2022/01/21 04:51:16;;;;;;;12.43;3.23;;;2.60;99.90;;;;;;5114186;28;20180;-57
2022/01/21 04:53:44;;;;;;;9.57;3.07;;;2.50;99.90;;;;;;5113960;28;20168;-57
2022/01/21 04:56:11;;;;;;;6.67;2.60;;;2.50;99.90;;;;;;5113764;28;20599;-57
2022/01/21 04:58:37;;;;;;;6.27;2.90;;;2.40;99.90;;;;;;5113866;28;20205;-57
2022/01/21 05:01:05;;;;;;;7.20;2.60;;;2.40;99.90;;;;;;5113834;28;20587;-57
2022/01/21 05:03:31;;;;;;;7.53;2.60;;;2.50;99.90;;;;;;5113719;28;20626;-57
2022/01/21 05:05:57;;;;;;;10.70;2.63;;;2.40;99.90;;;;;;5113758;28;20578;-57
2022/01/21 05:08:31;;;;;;;8.13;2.60;;;2.50;99.90;;;;;;5113752;28;20208;-57
2022/01/21 05:10:57;;;;;;;10.00;2.80;;;2.50;99.90;;;;;;5113692;28;20252;-57
2022/01/21 05:13:26;;;;;;;8.53;2.80;;;2.60;99.90;;;;;;5113743;28;20261;-57
2022/01/21 05:16:05;;;;;;;7.50;3.27;;;2.70;99.90;;;;;;5113134;28;20733;-56
2022/01/21 05:18:31;;;;;;;7.20;2.50;;;2.70;99.90;;;;;;5113798;28;20739;-57
2022/01/21 05:20:57;;;;;;;8.30;3.07;;;2.70;99.90;;;;;;5113644;28;20204;-57
2022/01/21 05:23:24;;;;;;;8.15;3.00;;;2.70;99.90;;;;;;5113615;28;20519;-57
2022/01/21 05:25:49;;;;;;;6.23;2.90;;;2.70;99.90;;;;;;5113603;28;20184;-57
2022/01/21 05:28:16;;;;;;;7.23;2.70;;;2.70;99.90;;;;;;5113200;28;20193;-57
2022/01/21 05:30:42;;;;;;;8.17;2.77;;;2.70;99.90;;;;;;5113556;28;20237;-57
2022/01/21 05:33:08;;;;;;;9.67;2.87;;;2.70;99.90;;;;;;5113554;28;20178;-57
2022/01/21 05:35:33;;;;;;;10.20;2.80;;;2.80;99.90;;;;;;5113425;28;20258;-57
2022/01/21 05:37:59;;;;;;;10.17;2.50;;;2.80;99.90;;;;;;5113419;28;20275;-57
2022/01/21 05:40:25;;;;;;;8.03;2.60;;;2.80;99.90;;;;;;5113735;28;20191;-57
2022/01/21 05:42:51;;;;;;;7.63;2.43;;;2.80;99.90;;;;;;5113810;28;20188;-57
2022/01/21 05:48:00;;;;;;;7.93;2.20;;;2.90;99.90;;;;;;5117234;28;20212;-57
2022/01/21 05:50:26;;;;;;;9.47;2.50;;;2.80;99.90;;;;;;5117147;28;20204;-57
2022/01/21 05:52:52;;;;;;;7.47;2.17;;;2.80;99.90;;;;;;5116803;28;20222;-57
2022/01/21 05:55:18;;;;;;;9.10;2.53;;;2.80;99.90;;;;;;5116956;28;20208;-57
2022/01/21 05:57:44;;;;;;;7.87;2.10;;;2.80;99.90;;;;;;5117011;28;20222;-57
2022/01/21 06:00:11;;;;;;;5.57;2.13;;;2.70;99.90;;;;;;5116969;28;20180;-57
2022/01/21 06:02:37;;;;;;;9.47;2.53;;;2.70;99.90;;;;;;5116506;28;20177;-57
2022/01/21 06:05:04;;;;;;;8.43;2.33;;;2.60;99.90;;;;;;5116875;28;20271;-58
2022/01/21 06:07:31;;;;;;;7.50;2.40;;;2.50;99.90;;;;;;5116201;28;20645;-57
2022/01/21 06:09:56;;;;;;;7.40;2.47;;;2.50;99.90;;;;;;5116609;28;20174;-57
2022/01/21 06:12:22;;;;;;;6.13;2.20;;;2.40;99.90;;;;;;5116773;28;20529;-58
2022/01/21 06:14:48;;;;;;;7.47;2.10;;;2.40;99.90;;;;;;5116428;28;20204;-57
2022/01/21 06:17:14;;;;;;;7.83;2.60;;;2.30;99.90;;;;;;5115342;27;20683;-58
2022/01/21 06:19:39;;;;;;;7.17;3.10;;;2.20;99.90;;;;;;5116845;27;20174;-57
2022/01/21 06:22:06;;;;;;;7.17;2.90;;;2.20;99.90;;;;;;5116481;28;20177;-58
2022/01/21 06:24:32;;;;;;;5.70;2.23;;;2.10;99.90;;;;;;5122191;28;20657;-57
2022/01/21 06:27:01;;;;;;;8.57;2.80;;;2.10;99.90;;;;;;5121041;28;20216;-57
2022/01/21 06:29:27;;;;;;;7.63;2.80;;;2.00;99.90;;;;;;5116295;28;20212;-57
2022/01/21 06:31:53;;;;;;;9.23;2.50;;;2.00;99.90;;;;;;5116272;28;20173;-57
2022/01/21 06:34:19;;;;;;;8.00;2.83;;;2.00;99.90;;;;;;5115982;28;20166;-57
2022/01/21 06:36:45;;;;;;;6.00;2.40;;;2.00;99.90;;;;;;5116008;28;20260;-57
2022/01/21 06:39:10;;;;;;;7.33;3.20;;;2.00;99.90;;;;;;5115733;28;20206;-57
2022/01/21 06:41:36;;;;;;;12.77;3.03;;;2.10;99.90;;;;;;5116126;28;20172;-58
2022/01/21 06:44:02;;;;;;;6.87;2.50;;;2.00;99.90;;;;;;5116075;28;20579;-57
2022/01/21 06:46:28;;;;;;;7.80;2.73;;;2.00;99.90;;;;;;5116111;28;20188;-57
2022/01/21 06:48:53;;;;;;;7.97;2.20;;;2.00;99.90;;;;;;5116088;28;20172;-57
2022/01/21 06:51:19;;;;;;;5.63;2.47;;;2.00;99.90;;;;;;5115549;28;20535;-57
2022/01/21 06:53:45;;;;;;;8.80;2.60;;;2.10;99.90;;;;;;5116081;28;20178;-57
2022/01/21 06:56:11;;;;;;;7.73;2.60;;;2.10;99.90;;;;;;5114876;28;20233;-57
2022/01/21 06:58:36;;;;;;;9.80;2.43;;;2.10;99.90;;;;;;5115804;28;20510;-57
2022/01/21 07:01:02;;;;;;;9.37;2.50;;;2.10;99.90;;;;;;5115698;28;20181;-57
2022/01/21 07:03:28;;;;;;;7.67;2.50;;;2.00;99.90;;;;;;5115480;28;20184;-58
2022/01/21 07:05:53;;;;;;;6.57;2.27;;;2.00;99.90;;;;;;5115608;28;20234;-57
2022/01/21 07:08:19;;;;;;;4.93;2.40;;;2.00;99.90;;;;;;5115509;28;20568;-57
2022/01/21 07:10:45;;;;;;;5.83;2.67;;;2.00;99.90;;;;;;5115510;28;20180;-57
2022/01/21 07:13:11;;;;;;;9.67;2.90;;;2.00;99.90;;;;;;5115389;28;20256;-57
2022/01/21 07:15:37;;;;;;;10.87;3.00;;;1.90;99.90;;;;;;5114924;28;20665;-57
2022/01/21 07:18:03;;;;;;;7.37;3.03;;;2.00;99.90;;;;;;5115613;28;20185;-57
2022/01/21 07:20:29;;;;;;;8.53;2.67;;;1.90;99.90;;;;;;5115297;28;20173;-57
2022/01/21 07:22:54;;;;;;;7.83;3.00;;;1.90;99.90;;;;;;5115260;28;20185;-57
2022/01/21 07:25:20;;;;;;;6.83;2.63;;;1.90;99.90;;;;;;5114966;28;20233;-57
2022/01/21 07:27:46;;;;;;;7.93;3.30;;;1.80;99.90;;;;;;5115178;28;20493;-57
2022/01/21 07:30:13;;;;;;;10.10;3.23;;;1.80;99.90;;;;;;5115084;28;20218;-58
2022/01/21 07:32:41;;;;;;;9.57;3.20;;;1.90;99.90;;;;;;5115099;28;20191;-57
2022/01/21 07:35:09;;;;;;;10.60;3.47;;;1.90;99.90;;;;;;5114847;28;20212;-57
2022/01/21 07:37:35;;;;;;;7.77;2.90;;;2.00;99.90;;;;;;5114703;28;20656;-57
2022/01/21 07:40:01;;;;;;;8.37;3.10;;;1.90;99.90;;;;;;5114942;28;20626;-57
2022/01/21 07:42:28;;;;;;;8.50;2.97;;;1.90;99.90;;;;;;5114446;28;20187;-57
2022/01/21 07:44:54;;;;;;;7.60;3.13;;;2.00;99.90;;;;;;5113608;28;20210;-57
2022/01/21 07:47:20;;;;;;;8.40;3.93;;;1.90;99.90;;;;;;5114761;28;20626;-57
2022/01/21 07:49:49;;;;;;;11.80;4.20;;;2.00;99.90;;;;;;5114660;28;20582;-57
2022/01/21 07:52:15;;;;;;;10.03;3.60;;;2.00;99.90;;;;;;5114924;28;20182;-57
2022/01/21 07:54:41;;;;;;;8.77;3.83;;;2.10;99.90;;;;;;5114571;28;20651;-58
2022/01/21 07:57:08;;;;;;;9.80;3.60;;;2.20;99.90;;;;;;5114804;28;20525;-57
2022/01/21 07:59:34;;;;;;;9.63;3.47;;;2.30;99.90;;;;;;5114524;28;20191;-57
2022/01/21 08:01:59;;;;;;;11.73;3.07;;;2.40;99.90;;;;;;5114529;28;20180;-57
2022/01/21 08:04:25;;;;;;;8.43;3.17;;;2.40;99.90;;;;;;5114177;28;20282;-57
2022/01/21 08:06:51;;;;;;;8.97;3.67;;;2.40;99.90;;;;;;5116438;28;20229;-57
2022/01/21 08:09:16;;;;;;;11.67;3.30;;;2.50;99.90;;;;;;5117504;28;20222;-57
2022/01/21 08:11:42;;;;;;;10.53;3.33;;;2.60;99.90;;;;;;5118241;28;20180;-57
2022/01/21 08:14:08;;;;;;;9.23;5.10;;;2.70;99.90;;;;;;5118546;28;20226;-57
2022/01/21 08:16:35;;;;;;;12.43;5.37;;;2.70;99.90;;;;;;5114032;28;20224;-57
2022/01/21 08:19:03;;;;;;;12.27;6.07;;;2.70;99.90;;;;;;5113979;28;20545;-57
2022/01/21 08:21:29;;;;;;;16.07;8.80;;;2.70;99.90;;;;;;5114107;28;20334;-57
2022/01/21 08:23:55;;;;;;;13.37;8.97;;;2.60;99.90;;;;;;5113827;28;20651;-57
2022/01/21 08:26:24;;;;;;;12.67;7.10;;;2.60;99.90;;;;;;5113851;28;20184;-57
2022/01/21 08:28:51;;;;;;;13.20;4.23;;;2.60;99.90;;;;;;5114100;28;20230;-57
2022/01/21 08:31:17;;;;;;;10.07;3.57;;;2.60;99.90;;;;;;5113732;28;20187;-57
2022/01/21 08:33:43;;;;;;;8.50;3.43;;;2.60;99.90;;;;;;5113941;28;20172;-57
2022/01/21 08:36:10;;;;;;;10.00;3.87;;;2.60;99.90;;;;;;5113866;28;20249;-57
2022/01/21 08:38:36;;;;;;;8.20;3.70;;;2.60;99.90;;;;;;5113954;28;20200;-56
2022/01/21 08:41:02;;;;;;;10.67;4.23;;;2.70;99.90;;;;;;5113878;28;20248;-57
2022/01/21 08:43:28;;;;;;;9.77;4.13;;;2.80;99.90;;;;;;5113786;28;20218;-57
2022/01/21 08:45:53;;;;;;;11.00;4.80;;;2.80;99.90;;;;;;5113565;28;20565;-57
2022/01/21 08:48:19;;;;;;;11.73;5.70;;;2.90;99.90;;;;;;5113857;28;20180;-57
2022/01/21 08:50:45;;;;;;;13.67;5.83;;;3.00;99.90;;;;;;5113558;28;20176;-57
2022/01/21 08:55:55;;;;;;;11.23;5.40;;;3.10;99.90;;;;;;5095589;28;20255;-57
2022/01/21 08:58:21;;;;;;;14.47;5.57;;;3.10;99.90;;;;;;5113730;28;20644;-57
2022/01/21 09:00:47;;;;;;;11.80;5.03;;;3.20;99.90;;;;;;5113779;28;20172;-57
2022/01/21 09:03:12;;;;;;;11.47;5.50;;;3.20;99.90;;;;;;5111967;28;20214;-57
2022/01/21 09:05:38;;;;;;;10.00;5.07;;;3.20;99.90;;;;;;5113258;28;20191;-57
2022/01/21 09:08:04;;;;;;;13.10;5.90;;;3.20;99.90;;;;;;5113448;28;20533;-57
2022/01/21 09:10:30;;;;;;;12.70;5.63;;;3.30;99.90;;;;;;5113482;28;20188;-57
2022/01/21 09:12:55;;;;;;;12.47;5.97;;;3.40;99.90;;;;;;5113652;28;20180;-57
2022/01/21 09:15:25;;;;;;;15.02;6.90;;;3.40;99.90;;;;;;5113351;28;20219;-57
2022/01/21 09:17:51;;;;;;;11.77;6.20;;;3.40;99.90;;;;;;5114132;28;20196;-57
2022/01/21 09:20:17;;;;;;;15.53;6.67;;;3.50;99.90;;;;;;5117669;27;20213;-57
2022/01/21 09:22:43;;;;;;;14.67;6.50;;;3.50;99.90;;;;;;5117494;28;20226;-57
2022/01/21 09:25:08;;;;;;;17.50;6.07;;;3.60;99.90;;;;;;5117636;28;20625;-58
2022/01/21 09:27:35;;;;;;;12.80;6.60;;;3.70;99.90;;;;;;5117489;28;20180;-57
2022/01/21 09:30:01;;;;;;;14.90;5.67;;;3.70;99.90;;;;;;5099488;28;20216;-57
2022/01/21 09:32:26;;;;;;;13.73;5.43;;;3.80;99.90;;;;;;5117480;28;20323;-57
2022/01/21 09:34:52;;;;;;;12.75;5.95;;;3.90;99.90;;;;;;5117191;28;20204;-57
2022/01/21 09:37:18;;;;;;;14.40;5.55;;;4.00;99.90;;;;;;5117315;28;20172;-57
2022/01/21 09:39:43;;;;;;;11.70;5.60;;;4.10;99.90;;;;;;5117285;28;20173;-58
2022/01/21 09:42:12;;;;;;;10.63;6.28;;;4.20;99.90;;;;;;5117238;28;20262;-57
2022/01/21 09:44:39;;;;;;;13.05;5.93;;;4.20;99.90;;;;;;5117068;28;20195;-57
2022/01/21 09:47:05;;;;;;;12.32;5.80;;;4.30;99.90;;;;;;5117542;28;20181;-57
2022/01/21 09:49:31;;;;;;;12.38;5.93;;;4.40;99.90;;;;;;5117105;28;20238;-57
2022/01/21 09:52:07;;;;;;;14.43;6.10;;;4.50;99.90;;;;;;5117037;28;20230;-57
2022/01/21 09:54:37;;;;;;;13.10;6.03;;;4.60;99.90;;;;;;5116892;28;20210;-58
2022/01/21 09:57:06;;;;;;;15.02;6.20;;;4.70;99.90;;;;;;5119072;27;20557;-58
2022/01/21 09:59:36;;;;;;;12.27;5.68;;;4.80;99.90;;;;;;5121904;28;20188;-58
2022/01/21 10:02:09;;;;;;;13.63;6.28;;;4.90;99.90;;;;;;5116862;28;20259;-57
2022/01/21 10:04:41;;;;;;;13.82;5.80;;;5.10;99.90;;;;;;5116645;28;20208;-57
2022/01/21 10:07:16;;;;;;;11.88;5.60;;;5.20;99.90;;;;;;5116582;28;20173;-57
2022/01/21 10:09:44;;;;;;;12.73;5.63;;;5.50;99.90;;;;;;5116867;28;20514;-57
2022/01/21 10:12:10;;;;;;;14.35;5.45;;;5.60;99.90;;;;;;5116662;28;20180;-57
2022/01/21 10:14:37;;;;;;;14.45;5.13;;;5.80;99.90;;;;;;5116295;28;20183;-57
2022/01/21 10:17:03;;;;;;;13.20;6.25;;;5.90;99.90;;;;;;5116457;28;20192;-58
2022/01/21 10:19:31;;;;;;;14.40;5.65;;;5.90;99.90;;;;;;5116532;28;20174;-57
2022/01/21 10:22:19;;;;;;;11.75;5.90;;;6.00;99.90;;;;;;5116427;28;20174;-57
2022/01/21 10:25:01;;;;;;;13.93;6.47;;;6.10;99.90;;;;;;5116270;27;20518;-57
2022/01/21 10:27:40;;;;;;;11.13;5.93;;;6.20;99.90;;;;;;5116373;28;20180;-58
2022/01/21 10:30:23;;;;;;;14.00;6.28;;;6.30;99.90;;;;;;5114928;28;20161;-58
2022/01/21 10:32:50;;;;;;;12.90;5.40;;;6.30;99.90;;;;;;5116224;28;20188;-58
2022/01/21 10:35:24;;;;;;;12.18;6.10;;;6.40;99.90;;;;;;5116010;28;20197;-58
2022/01/21 10:37:50;;;;;;;11.40;5.53;;;6.40;99.90;;;;;;5116191;28;20188;-58
2022/01/21 10:40:17;;;;;;;10.32;5.15;;;6.40;99.90;;;;;;5116094;28;20184;-58
2022/01/21 10:42:44;;;;;;;9.63;5.00;;;6.40;99.90;;;;;;5114758;28;20169;-58
2022/01/21 10:45:11;;;;;;;10.50;5.50;;;6.40;99.90;;;;;;5115651;28;20529;-58
2022/01/21 10:47:40;;;;;;;12.57;4.97;;;6.50;99.90;;;;;;5115646;28;20176;-58
2022/01/21 10:50:14;;;;;;;9.77;5.10;;;6.60;99.90;;;;;;5115901;28;20217;-58
2022/01/21 10:52:51;;;;;;;11.35;6.00;;;6.70;99.90;;;;;;5115901;28;20173;-58
2022/01/21 10:55:33;;;;;;;11.70;5.72;;;6.60;99.90;;;;;;5115816;28;20200;-58
2022/01/21 10:58:06;;;;;;;13.65;6.25;;;6.60;99.90;;;;;;5115773;28;20161;-58
2022/01/21 11:00:32;;;;;;;13.32;5.80;;;6.70;99.90;;;;;;5115650;28;20177;-59
2022/01/21 11:03:12;;;;;;;11.40;5.80;;;6.70;99.90;;;;;;5115313;28;20188;-57
2022/01/21 11:05:43;;;;;;;11.80;5.22;;;6.70;99.90;;;;;;5115710;28;20214;-57
2022/01/21 11:08:10;;;;;;;10.18;4.75;;;6.80;99.90;;;;;;5115652;28;20171;-58
2022/01/21 11:10:38;;;;;;;13.48;4.75;;;6.90;99.90;;;;;;5115483;28;20621;-57
2022/01/21 11:13:15;;;;;;;12.52;4.82;;;6.90;99.90;;;;;;5115182;28;20627;-57
2022/01/21 11:15:46;;;;;;;11.88;4.35;;;7.00;99.90;;;;;;5115165;28;20594;-57
2022/01/21 11:18:16;;;;;;;12.45;4.60;;;7.00;99.90;;;;;;5115697;28;20189;-58
2022/01/21 11:20:45;;;;;;;11.38;4.97;;;7.00;99.90;;;;;;5115252;28;20352;-58
2022/01/21 11:23:12;;;;;;;10.02;4.10;;;7.10;99.90;;;;;;5115252;28;20234;-57
2022/01/21 11:25:44;;;;;;;10.57;3.53;;;7.20;99.90;;;;;;5115216;28;20181;-57
2022/01/21 11:28:11;;;;;;;9.82;3.83;;;7.10;99.90;;;;;;5115186;28;20175;-57
2022/01/21 11:30:37;;;;;;;10.02;3.42;;;7.00;99.90;;;;;;5115055;28;20172;-57
2022/01/21 11:33:03;;;;;;;8.45;3.72;;;6.90;99.90;;;;;;5115034;28;20180;-57
2022/01/21 11:35:30;;;;;;;10.93;4.10;;;6.80;99.90;;;;;;5114887;28;20201;-57
2022/01/21 11:37:57;;;;;;;8.75;3.95;;;6.80;99.90;;;;;;5114723;27;20530;-58
2022/01/21 11:40:23;;;;;;;9.38;4.07;;;6.90;99.90;;;;;;5114877;28;20192;-57
2022/01/21 11:42:50;;;;;;;12.18;3.80;;;7.00;99.90;;;;;;5115704;28;20642;-58
2022/01/21 11:45:43;;;;;;;8.70;3.83;;;7.00;99.90;;;;;;5118441;28;20200;-58
2022/01/21 11:50:44;;;;;;;10.23;4.15;;;7.10;99.90;;;;;;5114699;28;20238;-57
2022/01/21 11:53:10;;;;;;;11.23;4.00;;;7.10;99.90;;;;;;5114499;28;20208;-57
2022/01/21 11:55:39;;;;;;;9.77;3.42;;;7.20;99.90;;;;;;5114475;28;20281;-57
2022/01/21 11:58:19;;;;;;;8.98;3.45;;;7.30;99.90;;;;;;5114575;28;20635;-57
2022/01/21 12:00:48;;;;;;;12.02;3.60;;;7.40;99.90;;;;;;5114451;28;20157;-57
2022/01/21 12:03:20;;;;;;;10.38;3.17;;;7.50;99.90;;;;;;5114518;28;20184;-57
2022/01/21 12:05:46;;;;;;;6.60;2.90;;;7.60;99.90;;;;;;5114643;28;20209;-57
2022/01/21 12:08:12;;;;;;;8.52;3.28;;;7.70;99.90;;;;;;5114493;28;20259;-57
2022/01/21 12:10:43;;;;;;;8.15;3.33;;;7.70;99.90;;;;;;5114350;27;20165;-58
2022/01/21 12:13:18;;;;;;;7.70;2.97;;;7.80;99.90;;;;;;5114371;28;20507;-57
2022/01/21 12:21:23;;;;;;;9.13;3.65;;;7.70;99.90;;;;;;5114141;28;20180;-57
2022/01/21 12:23:49;;;;;;;9.50;3.15;;;7.70;99.90;;;;;;5114095;28;20178;-57
2022/01/21 12:26:19;;;;;;;7.93;3.30;;;7.50;99.90;;;;;;5113809;28;20627;-57
2022/01/21 12:28:52;;;;;;;12.00;3.88;;;7.70;99.90;;;;;;5113940;28;20181;-57
2022/01/21 12:31:20;;;;;;;11.38;3.88;;;7.50;99.90;;;;;;5113818;28;20240;-57
2022/01/21 12:34:10;;;;;;;9.57;4.30;;;7.50;99.90;;;;;;5114037;28;20536;-57
2022/01/21 12:36:47;;;;;;;6.75;3.45;;;7.20;99.90;;;;;;5113875;28;20216;-58
2022/01/21 12:39:38;;;;;;;8.20;3.60;;;7.20;99.90;;;;;;5114029;28;20172;-57
2022/01/21 12:42:24;;;;;;;11.85;3.75;;;7.10;99.90;;;;;;5113827;28;20579;-57
2022/01/21 12:45:17;;;;;;;9.07;3.83;;;7.00;99.90;;;;;;5113744;28;20238;-57
2022/01/21 12:47:45;;;;;;;10.30;3.35;;;7.10;99.90;;;;;;5113692;28;20215;-58
2022/01/21 12:50:39;;;;;;;6.18;3.42;;;6.90;99.90;;;;;;5113945;28;20696;-58
2022/01/21 12:53:23;;;;;;;6.40;3.60;;;7.00;99.90;;;;;;5113219;28;20164;-58
2022/01/21 12:55:56;;;;;;;8.50;3.45;;;7.10;99.90;;;;;;5113999;28;20189;-58
2022/01/21 12:58:29;;;;;;;11.50;3.50;;;7.00;99.90;;;;;;5113608;28;20520;-57
2022/01/21 13:00:57;;;;;;;9.52;3.22;;;7.10;99.90;;;;;;5113280;28;20185;-58
2022/01/21 13:03:28;;;;;;;10.48;4.15;;;7.20;99.90;;;;;;5113733;28;20196;-57
2022/01/21 13:06:19;;;;;;;11.77;3.78;;;7.30;99.90;;;;;;5113582;28;20229;-58
2022/01/21 13:09:09;;;;;;;13.75;4.15;;;7.20;99.90;;;;;;5106192;28;20185;-58
2022/01/21 13:11:40;;;;;;;9.60;3.85;;;7.40;99.90;;;;;;5113691;28;20173;-58
2022/01/21 13:17:00;;;;;;;11.60;3.90;;;7.30;99.90;;;;;;5113564;28;20212;-58
2022/01/21 13:19:30;;;;;;;12.20;4.32;;;7.30;99.90;;;;;;5113570;28;20161;-57
2022/01/21 13:21:56;;;;;;;11.60;4.43;;;7.40;99.90;;;;;;5113491;28;20568;-57
2022/01/21 13:24:27;;;;;;;11.40;4.35;;;7.50;99.90;;;;;;5112107;28;20684;-57
2022/01/21 13:26:53;;;;;;;12.45;3.92;;;7.60;99.90;;;;;;5113513;28;20164;-62
2022/01/21 13:29:32;;;;;;;11.68;3.95;;;7.50;99.90;;;;;;5114801;28;20192;-60
2022/01/21 13:32:00;;;;;;;14.30;4.10;;;7.60;99.90;;;;;;5117031;28;20255;-58
2022/01/21 13:34:43;;;;;;;14.52;4.22;;;7.50;99.90;;;;;;5113469;28;20630;-58
2022/01/21 13:37:11;;;;;;;13.32;4.60;;;7.40;99.90;;;;;;5113468;28;20611;-57
2022/01/21 13:39:44;;;;;;;15.23;3.95;;;7.30;99.90;;;;;;5113244;28;20183;-57
2022/01/21 13:42:13;;;;;;;11.00;4.15;;;7.20;99.90;;;;;;5113288;28;20649;-58
2022/01/21 13:44:56;;;;;;;12.43;3.90;;;7.20;99.90;;;;;;5113310;28;20165;-57
2022/01/21 13:47:34;;;;;;;10.88;3.58;;;7.20;99.90;;;;;;5113558;28;20181;-57
2022/01/21 13:50:24;;;;;;;13.43;4.10;;;7.10;99.90;;;;;;5113242;28;20488;-57
2022/01/21 13:52:58;;;;;;;13.10;3.80;;;7.00;99.90;;;;;;5112968;28;20165;-57
2022/01/21 13:55:26;;;;;;;12.75;3.83;;;7.10;99.90;;;;;;5113287;28;20203;-57
2022/01/21 13:57:53;;;;;;;12.55;3.60;;;7.10;99.90;;;;;;5113085;28;20165;-57
2022/01/21 14:00:33;;;;;;;11.07;3.72;;;7.10;99.90;;;;;;5111941;28;20180;-57